createdAt,value
2019-03-30T03:02:17.901Z,73.20
2019-03-30T03:04:47.031Z,73.70
2019-03-30T03:07:16.172Z,74.00
2019-03-30T03:09:45.296Z,73.60
2019-03-30T03:12:14.447Z,73.20
2019-03-30T03:14:43.563Z,73.80
2019-03-30T03:17:12.704Z,73.80
2019-03-30T03:19:41.824Z,73.60
2019-03-30T03:22:10.952Z,73.80
2019-03-30T03:24:40.081Z,74.40
2019-03-30T03:27:09.587Z,74.50
2019-03-30T03:29:43.166Z,74.20
2019-03-30T03:32:09.547Z,74.60
2019-03-30T03:34:38.691Z,74.90
2019-03-30T03:37:07.816Z,74.90
2019-03-30T03:39:36.957Z,75.00
2019-03-30T03:42:06.092Z,74.70
2019-03-30T03:44:35.256Z,74.20
2019-03-30T03:47:04.797Z,74.20
2019-03-30T03:49:33.937Z,74.80
2019-03-30T03:52:03.728Z,75.10
2019-03-30T03:54:32.941Z,74.80
2019-03-30T03:57:04.248Z,74.50
2019-03-30T03:59:34.043Z,74.90
2019-03-30T04:02:03.778Z,75.40
2019-03-30T04:04:32.899Z,75.30
2019-03-30T04:07:03.438Z,74.40
2019-03-30T04:09:32.922Z,74.00
2019-03-30T04:12:03.897Z,73.50
2019-03-30T04:14:33.352Z,73.40
2019-03-30T04:17:03.681Z,73.30
2019-03-30T04:19:32.804Z,74.40
2019-03-30T04:22:05.160Z,74.60
2019-03-30T04:24:34.277Z,74.90
2019-03-30T04:27:04.318Z,74.90
2019-03-30T04:29:33.508Z,74.90
2019-03-30T04:32:03.325Z,74.80
2019-03-30T04:34:32.471Z,74.50
2019-03-30T04:37:03.032Z,74.00
2019-03-30T04:39:32.239Z,73.90
2019-03-30T04:42:02.779Z,73.80
2019-03-30T04:44:32.468Z,73.40
2019-03-30T04:47:03.804Z,73.10
2019-03-30T04:49:32.929Z,73.20
2019-03-30T04:52:03.667Z,73.70
2019-03-30T04:54:33.375Z,73.80
2019-03-30T04:57:02.796Z,74.30
2019-03-30T04:59:31.903Z,74.00
2019-03-30T05:02:04.047Z,73.70
2019-03-30T05:04:33.263Z,73.40
2019-03-30T05:07:02.408Z,73.60
2019-03-30T05:09:32.419Z,73.50
2019-03-30T05:12:03.505Z,73.40
2019-03-30T05:14:32.652Z,73.90
2019-03-30T05:17:03.232Z,73.90
2019-03-30T05:19:32.400Z,74.00
2019-03-30T05:22:12.670Z,74.00
2019-03-30T05:24:34.291Z,74.40
2019-03-30T05:27:03.821Z,75.20
2019-03-30T05:29:33.524Z,74.80
2019-03-30T05:32:03.141Z,75.00
2019-03-30T05:34:32.359Z,75.30
2019-03-30T05:37:02.260Z,75.10
2019-03-30T05:39:31.383Z,74.90
2019-03-30T05:42:00.511Z,75.60
2019-03-30T05:44:30.328Z,76.20
2019-03-30T05:46:59.461Z,75.70
2019-03-30T05:49:29.175Z,74.90
2019-03-30T05:51:58.301Z,74.50
2019-03-30T05:54:27.742Z,74.50
2019-03-30T05:56:56.874Z,74.80
2019-03-30T05:59:26.009Z,75.20
2019-03-30T06:01:55.151Z,75.10
2019-03-30T06:04:24.279Z,76.10
2019-03-30T06:06:53.404Z,76.50
2019-03-30T06:09:22.543Z,76.20
2019-03-30T06:11:52.023Z,76.10
2019-03-30T06:14:22.844Z,76.60
2019-03-30T06:16:52.002Z,76.80
2019-03-30T06:19:21.129Z,76.60
2019-03-30T06:21:51.912Z,77.00
2019-03-30T06:24:21.627Z,76.80
2019-03-30T06:26:51.339Z,76.20
2019-03-30T06:29:20.480Z,77.30
2019-03-30T06:31:49.627Z,76.70
2019-03-30T06:34:18.749Z,77.10
2019-03-30T06:36:47.872Z,77.70
2019-03-30T06:39:17.018Z,78.40
2019-03-30T06:41:46.158Z,78.60
2019-03-30T06:44:16.352Z,79.40
2019-03-30T06:46:45.495Z,79.20
2019-03-30T06:49:14.620Z,79.40
2019-03-30T06:51:43.748Z,79.60
2019-03-30T06:54:14.808Z,79.90
2019-03-30T06:56:44.152Z,80.10
2019-03-30T06:59:13.267Z,80.10
2019-03-30T07:01:42.972Z,80.40
2019-03-30T07:04:12.114Z,80.30
2019-03-30T07:06:41.237Z,80.80
2019-03-30T07:09:10.382Z,81.20
2019-03-30T07:11:41.745Z,81.40
2019-03-30T07:14:10.893Z,81.20
2019-03-30T07:16:40.023Z,81.40
2019-03-30T07:19:09.156Z,81.10
2019-03-30T07:21:38.319Z,80.70
2019-03-30T07:24:07.444Z,80.20
2019-03-30T07:26:36.565Z,80.20
2019-03-30T07:29:05.696Z,79.80
2019-03-30T07:31:34.834Z,80.80
2019-03-30T07:34:04.070Z,80.00
2019-03-30T07:36:33.463Z,79.60
2019-03-30T07:39:04.079Z,79.50
2019-03-30T07:41:33.787Z,79.30
2019-03-30T07:44:02.935Z,79.10
2019-03-30T07:46:33.131Z,79.20
2019-03-30T07:49:02.843Z,79.00
2019-03-30T07:51:33.645Z,79.00
2019-03-30T07:54:03.661Z,78.80
2019-03-30T07:56:32.783Z,78.70
2019-03-30T07:59:02.775Z,79.00
2019-03-30T08:01:31.920Z,78.40
2019-03-30T08:04:01.611Z,78.30
2019-03-30T08:06:31.098Z,76.80
2019-03-30T08:09:00.247Z,76.60
2019-03-30T08:11:30.860Z,76.30
2019-03-30T08:14:00.011Z,75.80
2019-03-30T08:16:29.839Z,75.70
2019-03-30T08:18:58.986Z,76.00
2019-03-30T08:21:29.203Z,74.80
2019-03-30T08:23:58.335Z,74.80
2019-03-30T08:26:28.040Z,75.00
2019-03-30T08:28:57.186Z,74.60
2019-03-30T08:31:26.337Z,74.00
2019-03-30T08:33:55.469Z,73.70
2019-03-30T08:36:24.592Z,73.50
2019-03-30T08:38:53.738Z,73.20
2019-03-30T08:41:22.863Z,72.80
2019-03-30T08:43:52.568Z,72.20
2019-03-30T08:46:21.713Z,71.10
2019-03-30T08:48:50.840Z,71.60
2019-03-30T08:51:20.892Z,71.30
2019-03-30T08:53:54.680Z,69.30
2019-03-30T08:56:21.128Z,70.10
2019-03-30T08:58:50.259Z,69.00
2019-03-30T09:01:20.431Z,69.00
2019-03-30T09:03:50.140Z,66.90
2019-03-30T09:06:19.296Z,65.20
2019-03-30T09:08:48.442Z,63.80
2019-03-30T09:11:17.571Z,62.90
2019-03-30T09:13:47.010Z,62.80
2019-03-30T09:16:16.156Z,61.20
2019-03-30T09:18:45.305Z,60.90
2019-03-30T09:21:15.105Z,60.50
2019-03-30T09:23:44.232Z,60.80
2019-03-30T09:26:16.643Z,59.10
2019-03-30T09:28:45.681Z,60.10
2019-03-30T09:31:14.809Z,59.70
2019-03-30T09:33:43.956Z,59.50
2019-03-30T09:36:13.105Z,58.80
2019-03-30T09:38:42.228Z,58.50
2019-03-30T09:41:11.379Z,58.30
2019-03-30T09:43:40.532Z,58.30
2019-03-30T09:46:09.675Z,58.10
2019-03-30T09:48:39.073Z,57.60
2019-03-30T09:51:08.218Z,57.50
2019-03-30T09:53:37.371Z,59.50
2019-03-30T09:56:06.496Z,62.90
2019-03-30T09:58:36.196Z,59.60
2019-03-30T10:01:05.340Z,57.40
2019-03-30T10:03:34.470Z,57.20
2019-03-30T10:06:04.159Z,58.00
2019-03-30T10:08:33.287Z,57.90
2019-03-30T10:11:03.239Z,57.50
2019-03-30T10:13:33.355Z,57.10
2019-03-30T10:16:03.775Z,57.00
2019-03-30T10:18:33.493Z,58.00
2019-03-30T10:21:03.781Z,56.80
2019-03-30T10:23:33.409Z,56.90
2019-03-30T10:26:03.718Z,57.10
2019-03-30T10:28:32.857Z,56.50
2019-03-30T10:31:03.832Z,55.10
2019-03-30T10:33:32.984Z,54.10
2019-03-30T10:36:02.228Z,53.20
2019-03-30T10:38:32.519Z,53.10
2019-03-30T10:41:03.451Z,52.10
2019-03-30T10:43:32.595Z,51.70
2019-03-30T10:46:03.663Z,51.50
2019-03-30T10:48:32.804Z,51.90
2019-03-30T10:51:01.982Z,51.30
2019-03-30T10:53:31.122Z,51.90
2019-03-30T10:56:00.265Z,51.60
2019-03-30T10:58:31.688Z,50.00
2019-03-30T11:01:03.204Z,50.60
2019-03-30T11:03:32.397Z,49.80
2019-03-30T11:06:03.032Z,50.00
2019-03-30T11:08:32.175Z,49.30
2019-03-30T11:11:03.684Z,49.30
2019-03-30T11:13:33.781Z,49.60
2019-03-30T11:16:03.904Z,49.30
2019-03-30T11:18:33.032Z,50.10
2019-03-30T11:21:03.628Z,49.70
2019-03-30T11:23:33.464Z,50.80
2019-03-30T11:26:03.841Z,49.80
2019-03-30T11:28:32.987Z,52.50
2019-03-30T11:31:05.530Z,50.00
2019-03-30T11:33:34.844Z,50.10
2019-03-30T11:36:03.987Z,52.00
2019-03-30T11:38:33.110Z,51.50
2019-03-30T11:41:02.914Z,48.20
2019-03-30T11:43:32.679Z,47.90
2019-03-30T11:46:02.512Z,50.60
2019-03-30T11:48:31.963Z,48.10
2019-03-30T11:51:03.560Z,47.50
2019-03-30T11:53:32.688Z,47.20
2019-03-30T11:56:03.506Z,47.80
2019-03-30T11:58:32.652Z,47.80
2019-03-30T12:01:03.824Z,46.60
2019-03-30T12:03:32.963Z,45.00
2019-03-30T12:06:02.546Z,44.70
2019-03-30T12:08:31.688Z,44.80
2019-03-30T12:11:00.803Z,43.60
2019-03-30T12:13:31.243Z,43.40
2019-03-30T12:16:01.899Z,43.00
2019-03-30T12:18:31.015Z,42.90
2019-03-30T12:21:01.437Z,42.00
2019-03-30T12:23:30.625Z,42.20
2019-03-30T12:25:59.779Z,43.00
2019-03-30T12:28:28.903Z,42.50
2019-03-30T12:30:58.050Z,41.50
2019-03-30T12:33:27.197Z,41.30
2019-03-30T12:35:56.346Z,40.20
2019-03-30T12:38:25.469Z,40.60
2019-03-30T12:40:54.611Z,39.90
2019-03-30T12:43:23.759Z,40.20
2019-03-30T12:45:52.882Z,39.90
2019-03-30T12:48:22.580Z,39.60
2019-03-30T12:50:51.786Z,39.10
2019-03-30T12:53:20.908Z,40.10
2019-03-30T12:55:50.039Z,39.40
2019-03-30T12:58:19.182Z,39.70
2019-03-30T13:00:48.696Z,39.00
2019-03-30T13:03:17.816Z,38.60
2019-03-30T13:05:47.532Z,39.20
2019-03-30T13:08:16.647Z,38.60
2019-03-30T13:10:45.779Z,37.70
2019-03-30T13:13:14.920Z,36.50
2019-03-30T13:15:44.061Z,37.40
2019-03-30T13:18:13.184Z,37.40
2019-03-30T13:20:42.882Z,36.80
2019-03-30T13:23:12.012Z,36.00
2019-03-30T13:25:41.136Z,36.30
2019-03-30T13:28:10.280Z,36.50
2019-03-30T13:30:39.401Z,34.10
2019-03-30T13:33:08.540Z,34.70
2019-03-30T13:35:38.347Z,34.20
2019-03-30T13:38:07.472Z,34.10
2019-03-30T13:40:37.267Z,34.10
2019-03-30T13:43:06.404Z,34.40
2019-03-30T13:45:35.532Z,34.20
2019-03-30T13:48:04.676Z,34.00
2019-03-30T13:50:33.888Z,33.90
2019-03-30T13:53:04.689Z,34.00
2019-03-30T13:55:34.397Z,31.90
2019-03-30T13:58:04.106Z,31.10
2019-03-30T14:00:33.236Z,31.40
2019-03-30T14:03:03.667Z,31.50
2019-03-30T14:05:32.786Z,31.80
2019-03-30T14:08:02.929Z,32.10
2019-03-30T14:10:32.635Z,29.70
2019-03-30T14:13:02.876Z,29.30
2019-03-30T14:15:31.994Z,29.80
2019-03-30T14:18:02.788Z,29.80
2019-03-30T14:20:32.528Z,29.60
2019-03-30T14:23:02.935Z,29.60
2019-03-30T14:25:32.396Z,29.50
2019-03-30T14:28:03.721Z,29.50
2019-03-30T14:30:32.860Z,30.00
2019-03-30T14:33:03.392Z,30.00
2019-03-30T14:35:32.516Z,30.10
2019-03-30T14:38:01.907Z,31.00
2019-03-30T14:40:31.032Z,30.60
2019-03-30T14:43:00.189Z,30.90
2019-03-30T14:45:30.437Z,31.40
2019-03-30T14:47:59.556Z,30.40
2019-03-30T14:50:28.676Z,31.60
2019-03-30T14:52:57.825Z,31.40
2019-03-30T14:55:26.941Z,31.70
2019-03-30T14:57:56.125Z,30.80
2019-03-30T15:00:25.407Z,30.70
2019-03-30T15:02:54.673Z,31.10
2019-03-30T15:05:23.815Z,30.40
2019-03-30T15:07:53.280Z,30.60
2019-03-30T15:10:22.882Z,30.30
2019-03-30T15:12:52.014Z,30.90
2019-03-30T15:15:21.143Z,31.00
2019-03-30T15:17:50.284Z,31.70
2019-03-30T15:20:19.412Z,32.00
2019-03-30T15:22:48.560Z,30.90
2019-03-30T15:25:17.681Z,30.90
2019-03-30T15:27:47.891Z,31.20
2019-03-30T15:30:17.703Z,30.80
2019-03-30T15:32:46.831Z,31.30
2019-03-30T15:35:15.987Z,31.50
2019-03-30T15:37:45.123Z,32.40
2019-03-30T15:40:14.646Z,31.70
2019-03-30T15:42:43.758Z,32.10
2019-03-30T15:45:12.897Z,33.10
2019-03-30T15:47:42.035Z,32.90
2019-03-30T15:50:11.174Z,32.10
2019-03-30T15:52:40.314Z,32.30
2019-03-30T15:55:10.281Z,32.00
2019-03-30T15:57:39.416Z,33.10
2019-03-30T16:00:10.547Z,33.30
2019-03-30T16:02:39.966Z,33.60
2019-03-30T16:05:09.367Z,34.00
2019-03-30T16:07:38.525Z,34.90
2019-03-30T16:10:07.639Z,34.90
2019-03-30T16:12:36.786Z,35.00
2019-03-30T16:15:06.127Z,34.80
2019-03-30T16:17:36.235Z,34.10
2019-03-30T16:20:08.068Z,33.80
2019-03-30T16:22:37.447Z,33.80
2019-03-30T16:25:08.546Z,33.80
2019-03-30T16:27:39.381Z,34.20
2019-03-30T16:30:08.833Z,34.40
2019-03-30T16:32:37.951Z,34.40
2019-03-30T16:35:07.088Z,34.80
2019-03-30T16:37:36.224Z,34.60
2019-03-30T16:40:05.707Z,34.60
2019-03-30T16:42:35.143Z,34.70
2019-03-30T16:45:05.803Z,34.60
2019-03-30T16:47:34.945Z,34.30
2019-03-30T16:50:06.339Z,34.80
2019-03-30T16:52:36.446Z,34.70
2019-03-30T16:55:05.640Z,34.80
2019-03-30T16:57:43.180Z,35.20
2019-03-30T17:00:07.157Z,35.10
2019-03-30T17:02:36.612Z,35.10
2019-03-30T17:05:07.206Z,35.50
2019-03-30T17:07:36.349Z,35.60
2019-03-30T17:10:07.232Z,35.80
2019-03-30T17:12:37.323Z,36.20
2019-03-30T17:15:06.912Z,36.90
2019-03-30T17:18:33.867Z,37.20
2019-03-30T17:21:04.999Z,37.40
2019-03-30T17:23:34.230Z,38.00
2019-03-30T17:26:06.343Z,39.90
2019-03-30T17:28:37.158Z,39.60
2019-03-30T17:31:06.301Z,40.10
2019-03-30T17:33:35.423Z,40.40
2019-03-30T17:36:04.810Z,41.00
2019-03-30T17:38:34.215Z,41.60
2019-03-30T17:41:03.337Z,41.20
2019-03-30T17:43:32.456Z,41.10
2019-03-30T17:46:03.493Z,41.40
2019-03-30T17:48:33.603Z,42.20
2019-03-30T17:51:03.230Z,42.70
2019-03-30T17:53:32.998Z,43.20
2019-03-30T17:56:02.226Z,43.60
2019-03-30T17:58:31.663Z,44.00
2019-03-30T18:01:04.953Z,44.50
2019-03-30T18:03:34.080Z,44.80
2019-03-30T18:06:04.450Z,45.40
2019-03-30T18:08:34.180Z,45.50
2019-03-30T18:11:04.158Z,45.70
2019-03-30T18:13:36.737Z,45.70
2019-03-30T18:16:04.959Z,45.90
2019-03-30T18:18:34.087Z,46.80
2019-03-30T18:21:03.862Z,47.90
2019-03-30T18:23:33.563Z,47.90
2019-03-30T18:26:02.709Z,47.90
2019-03-30T18:28:33.492Z,48.50
2019-03-30T18:31:03.523Z,49.00
2019-03-30T18:33:33.899Z,49.00
2019-03-30T18:36:03.802Z,49.20
2019-03-30T18:38:36.396Z,49.80
2019-03-30T18:41:03.914Z,49.90
2019-03-30T18:43:33.067Z,50.60
2019-03-30T18:46:02.766Z,50.90
2019-03-30T18:48:31.892Z,51.20
2019-03-30T18:51:02.327Z,51.60
2019-03-30T18:53:31.457Z,51.80
2019-03-30T18:56:00.847Z,52.00
2019-03-30T18:58:41.076Z,52.20
2019-03-30T19:01:03.214Z,52.90
2019-03-30T19:03:32.343Z,53.70
2019-03-30T19:06:04.702Z,54.10
2019-03-30T19:08:34.745Z,55.00
2019-03-30T19:11:04.086Z,55.50
2019-03-30T19:13:33.251Z,56.00
2019-03-30T19:16:03.454Z,55.70
2019-03-30T19:18:32.567Z,56.10
2019-03-30T19:21:02.788Z,56.50
2019-03-30T19:23:32.003Z,56.80
2019-03-30T19:26:03.708Z,56.80
2019-03-30T19:28:32.826Z,56.80
2019-03-30T19:31:04.778Z,56.70
2019-03-30T19:33:33.906Z,56.90
2019-03-30T19:36:03.360Z,57.20
2019-03-30T19:38:32.516Z,57.50
2019-03-30T19:41:02.773Z,57.80
2019-03-30T19:43:32.483Z,57.70
2019-03-30T19:46:02.217Z,57.80
2019-03-30T19:48:31.335Z,58.20
2019-03-30T19:51:02.358Z,58.80
2019-03-30T19:53:31.520Z,58.80
2019-03-30T19:56:01.684Z,58.90
2019-03-30T19:58:30.822Z,58.70
2019-03-30T20:00:59.971Z,59.20
2019-03-30T20:03:31.234Z,59.40
2019-03-30T20:06:00.686Z,59.70
2019-03-30T20:08:32.286Z,60.00
2019-03-30T20:11:03.935Z,59.90
2019-03-30T20:13:33.403Z,60.30
2019-03-30T20:16:02.622Z,60.50
2019-03-30T20:18:32.106Z,60.50
2019-03-30T20:21:03.196Z,59.90
2019-03-30T20:23:32.341Z,60.50
2019-03-30T20:26:01.468Z,60.80
2019-03-30T20:28:31.468Z,60.80
2019-03-30T20:31:00.868Z,61.40
2019-03-30T20:33:31.406Z,60.80
2019-03-30T20:36:00.532Z,61.10
2019-03-30T20:38:31.126Z,61.10
2019-03-30T20:41:03.844Z,61.20
2019-03-30T20:43:32.996Z,61.30
2019-03-30T20:46:03.471Z,61.40
2019-03-30T20:48:32.623Z,61.70
2019-03-30T20:51:02.903Z,61.20
2019-03-30T20:53:32.047Z,61.70
2019-03-30T20:56:02.625Z,61.80
2019-03-30T20:58:31.771Z,61.80
2019-03-30T21:01:02.664Z,62.30
2019-03-30T21:03:32.784Z,62.20
2019-03-30T21:06:03.303Z,62.50
2019-03-30T21:08:32.455Z,62.30
2019-03-30T21:11:03.724Z,61.90
2019-03-30T21:13:32.875Z,61.40
2019-03-30T21:16:04.875Z,61.70
2019-03-30T21:18:33.999Z,61.50
2019-03-30T21:21:03.732Z,62.60
2019-03-30T21:23:32.861Z,63.70
2019-03-30T21:26:02.964Z,62.90
2019-03-30T21:28:32.087Z,62.80
2019-03-30T21:31:04.174Z,63.10
2019-03-30T21:33:33.299Z,62.80
2019-03-30T21:36:03.265Z,62.70
2019-03-30T21:38:33.486Z,62.40
2019-03-30T21:41:03.870Z,63.00
2019-03-30T21:43:33.014Z,63.00
2019-03-30T21:46:03.699Z,63.50
2019-03-30T21:48:32.848Z,62.40
2019-03-30T21:51:02.103Z,62.90
2019-03-30T21:53:31.814Z,63.00
2019-03-30T21:56:00.953Z,62.70
2019-03-30T21:58:30.895Z,63.60
2019-03-30T22:01:00.252Z,64.50
2019-03-30T22:03:31.279Z,64.80
2019-03-30T22:06:00.401Z,64.50
2019-03-30T22:08:30.773Z,64.50
2019-03-30T22:10:59.919Z,65.20
2019-03-30T22:13:30.735Z,65.30
2019-03-30T22:15:59.885Z,65.30
2019-03-30T22:18:31.251Z,65.50
2019-03-30T22:21:00.375Z,65.00
2019-03-30T22:23:31.571Z,65.10
2019-03-30T22:26:01.749Z,65.10
2019-03-30T22:28:30.875Z,64.80
2019-03-30T22:31:02.702Z,65.50
2019-03-30T22:33:31.832Z,65.90
2019-03-30T22:36:02.237Z,65.90
2019-03-30T22:38:31.361Z,65.70
2019-03-30T22:41:00.507Z,66.00
2019-03-30T22:43:30.199Z,66.20
2019-03-30T22:45:59.336Z,66.20
2019-03-30T22:48:29.055Z,66.10
2019-03-30T22:50:58.644Z,65.90
2019-03-30T22:53:27.797Z,66.10
2019-03-30T22:55:56.922Z,65.10
2019-03-30T22:58:26.046Z,65.20
2019-03-30T23:00:59.581Z,65.10
2019-03-30T23:03:29.475Z,65.90
2019-03-30T23:05:58.604Z,65.90
2019-03-30T23:08:27.747Z,66.10
2019-03-30T23:10:56.870Z,66.30
2019-03-30T23:13:26.000Z,66.30
